createdAt,value
2022-09-02T00:02:00.270Z,100494.94
2022-09-02T00:05:01.788Z,100494.75
2022-09-02T00:08:04.450Z,100476.34
2022-09-02T00:11:08.380Z,100492.66
2022-09-02T00:14:13.802Z,100501.56
2022-09-02T00:17:15.230Z,100495.97
2022-09-02T00:20:16.876Z,100490.59
2022-09-02T00:23:18.619Z,100494.91
2022-09-02T00:26:20.644Z,100489.00
2022-09-02T00:29:22.074Z,100481.72
2022-09-02T00:32:23.521Z,100486.53
2022-09-02T00:35:25.839Z,100475.66
2022-09-02T00:38:28.425Z,100481.63
2022-09-02T00:41:30.182Z,100481.72
2022-09-02T00:44:31.741Z,100479.06
2022-09-02T00:47:33.838Z,100471.56
2022-09-02T00:50:37.025Z,100469.34
2022-09-02T00:53:43.606Z,100463.25
2022-09-02T00:56:47.171Z,100473.72
2022-09-02T00:59:59.439Z,100468.16
2022-09-02T01:03:05.461Z,100472.31
2022-09-02T01:06:07.752Z,100461.28
2022-09-02T01:09:16.286Z,100462.16
2022-09-02T01:12:18.113Z,100473.88
2022-09-02T01:15:19.639Z,100459.56
2022-09-02T01:18:25.525Z,100468.84
2022-09-02T01:21:27.555Z,100468.09
2022-09-02T01:24:31.849Z,100473.97
2022-09-02T01:27:33.701Z,100477.59
2022-09-02T01:30:37.541Z,100470.06
2022-09-02T01:33:39.057Z,100472.94
2022-09-02T01:36:42.008Z,100469.50
2022-09-02T01:39:45.064Z,100471.00
2022-09-02T01:42:47.489Z,100471.00
2022-09-02T01:45:52.863Z,100464.63
2022-09-02T01:48:55.522Z,100456.94
2022-09-02T01:51:56.992Z,100451.59
2022-09-02T01:54:58.879Z,100461.88
2022-09-02T01:58:01.348Z,100471.97
2022-09-02T02:01:03.984Z,100469.72
2022-09-02T02:04:08.304Z,100472.19
2022-09-02T02:07:22.514Z,100466.06
2022-09-02T02:10:24.880Z,100475.91
2022-09-02T02:13:26.988Z,100470.69
2022-09-02T02:16:29.464Z,100466.28
2022-09-02T02:19:31.296Z,100466.75
2022-09-02T02:22:34.038Z,100468.00
2022-09-02T02:25:35.544Z,100466.44
2022-09-02T02:28:37.464Z,100469.50
2022-09-02T02:31:40.496Z,100469.63
2022-09-02T02:34:43.364Z,100467.69
2022-09-02T02:37:48.994Z,100461.72
2022-09-02T02:40:54.164Z,100466.28
2022-09-02T02:43:55.708Z,100457.16
2022-09-02T02:46:58.350Z,100466.13
2022-09-02T02:50:00.206Z,100455.75
2022-09-02T02:53:03.323Z,100464.44
2022-09-02T02:56:06.437Z,100450.47
2022-09-02T02:59:08.314Z,100452.34
2022-09-02T03:02:09.968Z,100455.09
2022-09-02T03:05:13.637Z,100453.78
2022-09-02T03:08:16.577Z,100449.97
2022-09-02T03:11:18.145Z,100450.84
2022-09-02T03:14:19.672Z,100449.78
2022-09-02T03:17:22.708Z,100454.72
2022-09-02T03:20:25.326Z,100445.28
2022-09-02T03:23:30.811Z,100439.09
2022-09-02T03:26:33.822Z,100443.88
2022-09-02T03:29:35.274Z,100438.38
2022-09-02T03:32:37.364Z,100438.25
2022-09-02T03:35:44.097Z,100448.34
2022-09-02T03:38:46.845Z,100441.28
2022-09-02T03:41:50.202Z,100450.38
2022-09-02T03:44:51.829Z,100451.69
2022-09-02T03:47:56.422Z,100446.28
2022-09-02T03:51:01.882Z,100453.41
2022-09-02T03:54:03.981Z,100449.69
2022-09-02T03:57:06.080Z,100456.25
2022-09-02T04:00:13.742Z,100447.53
2022-09-02T04:03:18.962Z,100441.25
2022-09-02T04:06:23.590Z,100447.91
2022-09-02T04:09:29.510Z,100455.41
2022-09-02T04:12:32.297Z,100452.66
2022-09-02T04:15:34.164Z,100437.69
2022-09-02T04:18:35.993Z,100442.00
2022-09-02T04:21:39.604Z,100436.66
2022-09-02T04:24:41.776Z,100440.44
2022-09-02T04:27:43.310Z,100444.06
2022-09-02T04:30:45.010Z,100437.19
2022-09-02T04:33:48.166Z,100443.47
2022-09-02T04:36:53.018Z,100445.28
2022-09-02T04:39:55.110Z,100445.50
2022-09-02T04:42:57.832Z,100440.25
2022-09-02T04:45:59.363Z,100441.69
2022-09-02T04:49:01.606Z,100446.53
2022-09-02T04:52:03.985Z,100444.44
2022-09-02T04:55:07.332Z,100448.41
2022-09-02T04:58:10.854Z,100442.25
2022-09-02T05:01:16.669Z,100448.81
2022-09-02T05:04:19.362Z,100448.81
2022-09-02T05:07:24.725Z,100448.13
2022-09-02T05:10:28.175Z,100447.84
2022-09-02T05:13:30.035Z,100444.31
2022-09-02T05:16:36.792Z,100450.25
2022-09-02T05:19:41.228Z,100451.06
2022-09-02T05:22:43.258Z,100450.25
2022-09-02T05:25:45.485Z,100455.09
2022-09-02T05:28:47.425Z,100457.00
2022-09-02T05:31:49.677Z,100458.16
2022-09-02T05:34:51.523Z,100454.72
2022-09-02T05:37:56.295Z,100458.59
2022-09-02T05:41:14.531Z,100446.81
2022-09-02T05:44:16.055Z,100451.41
2022-09-02T05:47:18.619Z,100457.31
2022-09-02T05:50:22.269Z,100455.69
2022-09-02T05:53:26.676Z,100450.38
2022-09-02T05:56:28.941Z,100455.88
2022-09-02T05:59:32.985Z,100452.25
2022-09-02T06:02:34.909Z,100454.25
2022-09-02T06:05:38.304Z,100453.78
2022-09-02T06:08:47.687Z,100451.97
2022-09-02T06:11:50.529Z,100457.78
2022-09-02T06:14:56.460Z,100451.47
2022-09-02T06:17:59.698Z,100453.53
2022-09-02T06:21:04.367Z,100461.34
2022-09-02T06:24:11.292Z,100461.72
2022-09-02T06:27:12.829Z,100456.94
2022-09-02T06:30:18.850Z,100452.94
2022-09-02T06:33:20.781Z,100449.38
2022-09-02T06:36:28.281Z,100446.88
2022-09-02T06:39:31.043Z,100446.94
2022-09-02T06:42:33.671Z,100448.25
2022-09-02T06:45:44.045Z,100446.72
2022-09-02T06:48:45.735Z,100448.03
2022-09-02T06:51:49.430Z,100444.22
2022-09-02T06:54:52.161Z,100448.38
2022-09-02T06:57:53.814Z,100442.00
2022-09-02T07:00:55.504Z,100447.75
2022-09-02T07:04:17.830Z,100438.81
2022-09-02T07:07:19.591Z,100442.66
2022-09-02T07:10:32.451Z,100445.53
2022-09-02T07:13:34.793Z,100446.44
2022-09-02T07:16:42.298Z,100448.47
2022-09-02T07:19:44.900Z,100443.25
2022-09-02T07:22:46.449Z,100440.34
2022-09-02T07:25:50.851Z,100437.47
2022-09-02T07:28:54.305Z,100444.41
2022-09-02T07:31:58.122Z,100433.38
2022-09-02T07:35:00.311Z,100433.78
2022-09-02T07:38:04.164Z,100435.50
2022-09-02T07:41:08.533Z,100421.75
2022-09-02T07:44:11.343Z,100426.94
2022-09-02T07:47:12.794Z,100430.09
2022-09-02T07:50:20.736Z,100425.34
2022-09-02T07:53:27.328Z,100434.44
2022-09-02T07:56:29.205Z,100440.34
2022-09-02T07:59:31.330Z,100438.56
2022-09-02T08:02:34.884Z,100440.66
2022-09-02T08:05:37.832Z,100441.13
2022-09-02T08:08:40.252Z,100437.19
2022-09-02T08:11:45.093Z,100436.09
2022-09-02T08:14:46.514Z,100434.81
2022-09-02T08:17:48.735Z,100440.63
2022-09-02T08:20:50.886Z,100437.78
2022-09-02T08:23:55.157Z,100431.66
2022-09-02T08:26:56.627Z,100432.66
2022-09-02T08:29:59.436Z,100439.97
2022-09-02T08:33:00.938Z,100437.53
2022-09-02T08:36:05.307Z,100433.88
2022-09-02T08:39:06.779Z,100423.50
2022-09-02T08:42:24.611Z,100434.38
2022-09-02T08:45:37.086Z,100418.97
2022-09-02T08:48:45.156Z,100423.06
2022-09-02T08:51:53.294Z,100425.09
2022-09-02T08:54:56.061Z,100418.84
2022-09-02T08:57:57.932Z,100419.09
2022-09-02T09:01:09.681Z,100413.25
2022-09-02T09:04:19.024Z,100415.88
2022-09-02T09:07:26.931Z,100411.50
2022-09-02T09:10:38.971Z,100411.94
2022-09-02T09:14:02.844Z,100404.34
2022-09-02T09:17:20.278Z,100393.28
2022-09-02T09:20:25.444Z,100395.97
2022-09-02T09:23:35.969Z,100394.91
2022-09-02T09:26:40.639Z,100400.22
2022-09-02T09:29:42.270Z,100395.56
2022-09-02T09:32:52.254Z,100392.16
2022-09-02T09:35:55.276Z,100397.78
2022-09-02T09:38:56.688Z,100389.16
2022-09-02T09:42:01.714Z,100381.84
2022-09-02T09:45:23.236Z,100379.22
2022-09-02T09:48:30.957Z,100381.22
2022-09-02T09:51:49.909Z,100377.56
2022-09-02T09:55:12.653Z,100368.06
2022-09-02T09:58:14.205Z,100373.88
2022-09-02T10:01:20.239Z,100373.00
2022-09-02T10:04:46.848Z,100373.28
2022-09-02T10:07:55.576Z,100371.59
2022-09-02T10:11:08.299Z,100367.91
2022-09-02T10:14:11.319Z,100364.50
2022-09-02T10:17:23.542Z,100358.38
2022-09-02T10:21:15.785Z,100356.28
2022-09-02T10:24:27.088Z,100351.00
2022-09-02T10:27:40.789Z,100352.13
2022-09-02T10:31:02.475Z,100342.59
2022-09-02T10:34:42.489Z,100353.97
2022-09-02T10:38:11.860Z,100339.47
2022-09-02T10:44:59.747Z,100325.25
2022-09-02T10:48:13.174Z,100313.41
2022-09-02T10:51:39.487Z,100313.59
2022-09-02T10:54:53.868Z,100321.25
2022-09-02T10:58:06.062Z,100307.25
2022-09-02T11:01:12.179Z,100305.28
2022-09-02T11:04:25.070Z,100295.66
2022-09-02T11:07:33.976Z,100295.38
2022-09-02T11:10:43.685Z,100295.34
2022-09-02T11:14:18.585Z,100284.13
2022-09-02T11:17:44.205Z,100290.59
2022-09-02T11:20:58.972Z,100275.56
2022-09-02T11:24:13.072Z,100264.44
2022-09-02T11:27:43.446Z,100256.63
2022-09-02T11:34:10.267Z,100261.06
2022-09-02T11:37:24.504Z,100265.09
2022-09-02T11:40:37.281Z,100247.88
2022-09-02T11:43:52.773Z,100259.84
2022-09-02T11:47:16.158Z,100259.16
2022-09-02T11:50:50.315Z,100254.78
2022-09-02T11:53:54.993Z,100249.09
2022-09-02T11:57:04.102Z,100264.13
2022-09-02T12:00:11.356Z,100252.31
2022-09-02T12:03:39.158Z,100253.16
2022-09-02T12:07:21.165Z,100257.09
2022-09-02T12:10:47.612Z,100254.09
2022-09-02T12:17:09.566Z,100255.34
2022-09-02T12:20:36.608Z,100244.41
2022-09-02T12:24:06.877Z,100233.63
2022-09-02T12:27:11.436Z,100227.50
2022-09-02T12:30:13.195Z,100227.00
2022-09-02T12:33:30.528Z,100221.22
2022-09-02T12:36:38.938Z,100220.47
2022-09-02T12:39:40.268Z,100214.66
2022-09-02T12:42:46.682Z,100216.69
2022-09-02T12:45:50.642Z,100221.16
2022-09-02T12:49:03.637Z,100212.19
2022-09-02T12:52:08.389Z,100201.94
2022-09-02T12:55:15.813Z,100198.59
2022-09-02T12:58:22.202Z,100195.94
2022-09-02T13:01:47.800Z,100187.97
2022-09-02T13:05:18.496Z,100180.34
2022-09-02T13:08:38.589Z,100178.81
2022-09-02T13:11:57.344Z,100170.97
2022-09-02T13:15:08.673Z,100172.09
2022-09-02T13:18:30.796Z,100168.53
2022-09-02T13:21:41.126Z,100176.50
2022-09-02T13:25:14.157Z,100164.84
2022-09-02T13:28:50.088Z,100162.34
2022-09-02T13:32:10.675Z,100151.94
2022-09-02T13:35:24.587Z,100148.38
2022-09-02T13:38:28.981Z,100143.66
2022-09-02T13:41:32.811Z,100128.25
2022-09-02T13:44:34.830Z,100130.28
2022-09-02T13:47:36.962Z,100132.13
2022-09-02T13:50:43.826Z,100127.06
2022-09-02T13:57:13.242Z,100114.53
2022-09-02T14:00:25.590Z,100106.41
2022-09-02T14:03:27.463Z,100111.31
2022-09-02T14:06:33.356Z,100108.25
2022-09-02T14:09:35.560Z,100101.34
2022-09-02T14:12:39.196Z,100099.63
2022-09-02T14:15:40.713Z,100094.81
2022-09-02T14:19:07.957Z,100077.81
2022-09-02T14:22:27.915Z,100072.81
2022-09-02T14:25:49.313Z,100072.59
2022-09-02T14:28:52.170Z,100072.41
2022-09-02T14:32:10.626Z,100071.06
2022-09-02T14:35:18.173Z,100064.25
2022-09-02T14:38:24.242Z,100065.13
2022-09-02T14:41:27.214Z,100053.91
2022-09-02T14:44:34.572Z,100046.75
2022-09-02T14:47:39.074Z,100044.28
2022-09-02T14:50:41.420Z,100033.63
2022-09-02T14:53:43.785Z,100041.81
2022-09-02T14:56:52.947Z,100048.31
2022-09-02T14:59:56.923Z,100040.50
2022-09-02T15:03:00.193Z,100040.72
2022-09-02T15:06:03.433Z,100050.84
2022-09-02T15:09:04.989Z,100040.88
2022-09-02T15:12:06.608Z,100037.09
2022-09-02T15:15:08.437Z,100034.56
2022-09-02T15:18:09.895Z,100032.03
2022-09-02T15:21:11.500Z,100028.59
2022-09-02T15:24:13.102Z,100026.09
2022-09-02T15:27:15.472Z,100022.19
2022-09-02T15:30:18.741Z,100035.06
2022-09-02T15:33:20.241Z,100029.94
2022-09-02T15:36:23.446Z,100030.63
2022-09-02T15:39:25.970Z,100028.97
2022-09-02T15:42:27.448Z,100029.69
2022-09-02T15:45:28.962Z,100035.09
2022-09-02T15:48:32.278Z,100033.16
2022-09-02T15:51:35.320Z,100021.91
2022-09-02T15:54:36.764Z,100019.41
2022-09-02T15:57:38.188Z,100027.00
2022-09-02T16:00:40.665Z,100028.53
2022-09-02T16:03:45.208Z,100028.69
2022-09-02T16:06:49.045Z,100027.31
2022-09-02T16:09:50.509Z,100025.09
2022-09-02T16:12:51.950Z,100032.88
2022-09-02T16:16:00.502Z,100028.53
2022-09-02T16:19:02.893Z,100030.97
2022-09-02T16:22:04.522Z,100028.31
2022-09-02T16:25:06.608Z,100009.16
2022-09-02T16:28:08.101Z,100016.31
2022-09-02T16:31:11.215Z,100016.66
2022-09-02T16:34:18.008Z,100023.78
2022-09-02T16:37:19.494Z,100023.47
2022-09-02T16:40:21.421Z,100021.72
2022-09-02T16:43:24.391Z,100019.34
2022-09-02T16:46:27.176Z,100016.13
2022-09-02T16:49:28.720Z,100010.19
2022-09-02T16:52:32.131Z,100012.50
2022-09-02T16:55:33.558Z,100003.84
2022-09-02T16:58:40.579Z,100011.56
2022-09-02T17:01:42.131Z,100003.91
2022-09-02T17:04:43.612Z,100008.59
2022-09-02T17:07:45.423Z,100005.34
2022-09-02T17:10:46.829Z,100000.03
2022-09-02T17:13:58.561Z,99998.44
2022-09-02T17:17:00.076Z,100001.94
2022-09-02T17:20:01.553Z,100002.44
2022-09-02T17:23:04.440Z,100013.38
2022-09-02T17:26:05.974Z,100007.47
2022-09-02T17:29:26.281Z,100010.22
2022-09-02T17:32:34.290Z,100012.16
2022-09-02T17:35:35.737Z,100001.41
2022-09-02T17:38:37.244Z,100000.34
2022-09-02T17:41:57.551Z,100000.50
2022-09-02T17:44:59.088Z,99990.56
2022-09-02T17:48:19.249Z,99990.34
2022-09-02T17:51:21.966Z,99990.94
2022-09-02T17:54:23.588Z,99977.09
2022-09-02T17:57:50.001Z,99989.09
2022-09-02T18:00:58.754Z,99993.13
2022-09-02T18:04:39.954Z,99991.72
2022-09-02T18:08:05.789Z,99984.88
2022-09-02T18:11:07.821Z,99986.06
2022-09-02T18:14:23.414Z,99987.28
2022-09-02T18:17:35.201Z,99978.94
2022-09-02T18:20:45.218Z,99975.47
2022-09-02T18:24:37.420Z,99983.56
2022-09-02T18:27:52.638Z,99984.22
2022-09-02T18:31:20.352Z,99987.31
2022-09-02T18:34:40.240Z,99988.22
2022-09-02T18:37:53.506Z,99986.22
2022-09-02T18:41:25.756Z,99987.81
2022-09-02T18:44:46.589Z,99992.97
2022-09-02T18:47:52.592Z,99992.56
2022-09-02T18:51:02.695Z,100004.44
2022-09-02T18:54:15.229Z,99998.34
2022-09-02T18:57:17.135Z,99997.94
2022-09-02T19:00:22.101Z,100004.63
2022-09-02T19:03:23.765Z,100002.50
2022-09-02T19:06:34.261Z,100008.03
2022-09-02T19:09:36.268Z,100018.81
2022-09-02T19:12:39.022Z,100020.81
2022-09-02T19:15:40.786Z,100022.66
2022-09-02T19:18:42.726Z,100023.81
2022-09-02T19:21:51.707Z,100029.47
2022-09-02T19:24:58.486Z,100026.31
2022-09-02T19:28:02.556Z,100037.09
2022-09-02T19:31:04.689Z,100026.31
2022-09-02T19:34:08.142Z,100035.66
2022-09-02T19:37:11.841Z,100033.41
2022-09-02T19:40:17.945Z,100035.66
2022-09-02T19:43:20.189Z,100032.53
2022-09-02T19:47:04.173Z,100032.38
2022-09-02T19:49:44.052Z,100028.00
2022-09-02T19:52:45.974Z,100028.84
2022-09-02T19:55:47.738Z,100027.81
2022-09-02T19:58:49.184Z,100029.09
2022-09-02T20:01:50.640Z,100033.91
2022-09-02T20:04:53.142Z,100036.41
2022-09-02T20:07:54.941Z,100034.41
2022-09-02T20:11:05.002Z,100032.69
2022-09-02T20:14:06.432Z,100031.72
2022-09-02T20:17:14.676Z,100028.16
2022-09-02T20:20:19.578Z,100022.88
2022-09-02T20:23:22.381Z,100029.50
2022-09-02T20:26:49.842Z,100027.78
2022-09-02T20:30:15.923Z,100030.31
2022-09-02T20:33:19.831Z,100020.81
2022-09-02T20:36:34.051Z,100019.41
2022-09-02T20:39:48.594Z,100004.56
2022-09-02T20:43:12.580Z,100005.41
2022-09-02T20:46:14.151Z,100015.41
2022-09-02T20:49:35.744Z,100014.72
2022-09-02T20:52:46.304Z,100008.19
2022-09-02T20:55:54.910Z,100010.75
2022-09-02T20:59:10.484Z,99999.28
2022-09-02T21:02:14.995Z,100008.97
2022-09-02T21:05:27.914Z,100004.00
2022-09-02T21:08:38.862Z,100011.31
2022-09-02T21:11:49.759Z,100011.31
2022-09-02T21:15:01.849Z,100011.13
2022-09-02T21:18:29.442Z,100008.88
2022-09-02T21:21:40.237Z,100007.19
2022-09-02T21:25:06.552Z,100001.47
2022-09-02T21:28:14.926Z,100004.00
2022-09-02T21:31:29.221Z,100003.38
2022-09-02T21:34:39.941Z,100015.50
2022-09-02T21:37:44.432Z,100004.94
2022-09-02T21:41:18.885Z,100001.72
2022-09-02T21:44:41.802Z,100001.44
2022-09-02T21:47:49.914Z,100001.09
2022-09-02T21:50:58.571Z,100001.97
2022-09-02T21:54:28.915Z,100003.22
2022-09-02T21:58:15.268Z,99995.16
2022-09-02T22:01:42.208Z,99996.59
2022-09-02T22:05:03.866Z,100004.47
2022-09-02T22:08:20.814Z,99999.88
2022-09-02T22:11:36.862Z,100001.19
2022-09-02T22:14:53.790Z,99999.06
2022-09-02T22:18:10.879Z,100001.19
2022-09-02T22:21:50.910Z,100008.50
2022-09-02T22:24:55.042Z,100005.34
2022-09-02T22:28:12.532Z,100008.28
2022-09-02T22:31:19.459Z,100012.06
2022-09-02T22:34:23.690Z,100016.47
2022-09-02T22:37:39.998Z,100014.63
2022-09-02T22:40:48.045Z,100010.53
2022-09-02T22:43:59.081Z,100015.16
2022-09-02T22:47:25.090Z,100008.56
2022-09-02T22:50:50.450Z,100010.50
2022-09-02T22:53:51.859Z,100010.50
2022-09-02T22:57:09.988Z,99996.41
2022-09-02T23:00:16.718Z,100002.50
2022-09-02T23:03:24.056Z,100006.66
2022-09-02T23:06:28.089Z,100001.19
2022-09-02T23:09:31.658Z,99997.53
2022-09-02T23:12:45.903Z,100001.59
2022-09-02T23:15:59.625Z,100003.78
2022-09-02T23:19:22.882Z,100002.91
2022-09-02T23:22:36.566Z,99999.53
2022-09-02T23:26:12.135Z,99996.00
2022-09-02T23:29:26.981Z,99995.00
2022-09-02T23:32:39.289Z,99993.06
2022-09-02T23:35:59.809Z,99990.75
2022-09-02T23:39:24.960Z,99990.28
2022-09-02T23:42:26.789Z,99981.63
2022-09-02T23:45:31.941Z,99992.34
2022-09-02T23:49:05.339Z,99992.13
2022-09-02T23:52:23.828Z,99989.66
2022-09-02T23:55:40.072Z,99987.00
2022-09-02T23:59:29.050Z,99983.97
